Time;durP1;ratioP1;P1;durP2;ratioP2;P2;SDS_P1;SDS_P2;PMS_P1;PMS_P2;Temp;Humidity;BMP_temperature;BMP_pressure;BME280_temperature;BME280_humidity;BME280_pressure;Samples;Min_cycle;Max_cycle;Signal;HPM_P1;HPM_P2
2024/01/10 00:00:22;;;;;;;16.52;7.07;;;;;;;;;;5094069;28;20479;-77
2024/01/10 00:02:48;;;;;;;22.83;10.18;;;;;;;;;;5094303;28;20040;-76
2024/01/10 00:05:14;;;;;;;18.40;9.52;;;;;;;;;;5094881;28;20049;-76
2024/01/10 00:07:40;;;;;;;18.65;7.47;;;;;;;;;;5077490;28;20130;-76
2024/01/10 00:10:07;;;;;;;16.48;8.30;;;;;;;;;;5094415;28;20048;-76
2024/01/10 00:12:36;;;;;;;18.15;5.47;;;;;;;;;;5076017;28;20105;-75
2024/01/10 00:15:05;;;;;;;20.58;9.30;;;;;;;;;;5094287;28;20044;-77
2024/01/10 00:17:32;;;;;;;24.45;10.55;;;;;;;;;;5094187;28;20052;-76
2024/01/10 00:19:58;;;;;;;12.97;6.27;;;;;;;;;;5094033;28;20067;-75
2024/01/10 00:22:24;;;;;;;18.33;8.30;;;;;;;;;;5093040;28;20351;-77
2024/01/10 00:24:50;;;;;;;20.88;9.27;;;;;;;;;;5092812;28;20400;-75
2024/01/10 00:27:16;;;;;;;20.95;7.53;;;;;;;;;;5093340;28;20044;-77
2024/01/10 00:29:42;;;;;;;14.80;5.38;;;;;;;;;;5094279;28;20040;-77
2024/01/10 00:32:08;;;;;;;14.23;5.40;;;;;;;;;;5094495;28;20058;-75
2024/01/10 00:34:35;;;;;;;16.42;7.53;;;;;;;;;;5092913;28;20051;-76
2024/01/10 00:37:01;;;;;;;21.17;7.85;;;;;;;;;;5094087;28;20056;-76
2024/01/10 00:39:27;;;;;;;19.10;8.57;;;;;;;;;;5093669;28;20144;-74
2024/01/10 00:41:53;;;;;;;12.27;4.45;;;;;;;;;;5094239;28;20048;-75
2024/01/10 00:44:19;;;;;;;20.70;8.68;;;;;;;;;;5094214;28;20044;-76
2024/01/10 00:46:45;;;;;;;15.57;6.55;;;;;;;;;;5093233;28;20105;-77
2024/01/10 00:49:11;;;;;;;18.35;7.15;;;;;;;;;;5095095;28;20105;-76
2024/01/10 00:51:37;;;;;;;16.17;7.45;;;;;;;;;;5096817;28;20039;-76
2024/01/10 00:54:03;;;;;;;14.98;6.80;;;;;;;;;;5101050;28;20036;-78
2024/01/10 00:56:29;;;;;;;15.80;6.18;;;;;;;;;;5080193;28;20152;-78
2024/01/10 00:58:57;;;;;;;13.63;6.05;;;;;;;;;;5095590;28;20402;-74
2024/01/10 01:01:24;;;;;;;19.23;7.13;;;;;;;;;;5094230;28;20496;-75
2024/01/10 01:03:50;;;;;;;18.73;7.28;;;;;;;;;;5095616;28;20121;-76
2024/01/10 01:06:16;;;;;;;18.10;8.13;;;;;;;;;;5098119;28;20127;-75
2024/01/10 01:08:42;;;;;;;13.90;6.30;;;;;;;;;;5098399;28;20090;-76
2024/01/10 01:11:09;;;;;;;15.63;6.30;;;;;;;;;;5098004;28;20050;-77
2024/01/10 01:13:35;;;;;;;20.77;9.80;;;;;;;;;;5098056;28;20055;-76
2024/01/10 01:16:02;;;;;;;15.25;5.85;;;;;;;;;;5098440;28;20358;-77
2024/01/10 01:18:28;;;;;;;23.80;9.25;;;;;;;;;;5097596;28;20060;-76
2024/01/10 01:20:54;;;;;;;22.30;9.32;;;;;;;;;;5079358;28;20048;-76
2024/01/10 01:23:20;;;;;;;17.67;7.35;;;;;;;;;;5098337;28;20044;-77
2024/01/10 01:25:46;;;;;;;23.38;9.27;;;;;;;;;;5096092;28;20042;-76
2024/01/10 01:28:12;;;;;;;22.50;8.90;;;;;;;;;;5096216;28;20066;-74
2024/01/10 01:30:39;;;;;;;18.70;6.97;;;;;;;;;;5097612;28;20040;-78
2024/01/10 01:33:05;;;;;;;18.00;7.07;;;;;;;;;;5096685;28;20054;-74
2024/01/10 01:35:31;;;;;;;16.83;7.13;;;;;;;;;;5097573;28;20051;-78
2024/01/10 01:37:57;;;;;;;19.77;8.23;;;;;;;;;;5096985;28;20044;-76
2024/01/10 01:40:23;;;;;;;18.38;8.23;;;;;;;;;;5095670;28;20039;-77
2024/01/10 01:42:49;;;;;;;19.50;7.95;;;;;;;;;;5095986;28;20385;-77
2024/01/10 01:45:15;;;;;;;15.10;5.13;;;;;;;;;;5097128;28;20054;-76
2024/01/10 01:47:42;;;;;;;18.73;7.22;;;;;;;;;;5095907;28;20044;-76
2024/01/10 01:50:08;;;;;;;23.17;9.13;;;;;;;;;;5095979;28;20051;-76
2024/01/10 01:52:37;;;;;;;24.08;7.63;;;;;;;;;;5097938;28;20048;-76
2024/01/10 01:55:04;;;;;;;24.13;9.27;;;;;;;;;;5097638;28;20126;-76
2024/01/10 01:57:30;;;;;;;26.25;8.25;;;;;;;;;;5096909;28;20209;-77
2024/01/10 01:59:57;;;;;;;21.40;8.70;;;;;;;;;;5096045;28;20066;-76
2024/01/10 02:02:23;;;;;;;23.35;9.85;;;;;;;;;;5096843;28;20178;-78
2024/01/10 02:04:50;;;;;;;16.93;6.87;;;;;;;;;;5095761;28;20040;-75
2024/01/10 02:07:16;;;;;;;22.48;8.90;;;;;;;;;;5097471;28;20044;-78
2024/01/10 02:09:42;;;;;;;16.80;6.63;;;;;;;;;;5096375;28;20055;-75
2024/01/10 02:12:08;;;;;;;17.85;8.13;;;;;;;;;;5096947;28;20137;-76
2024/01/10 02:14:34;;;;;;;11.30;4.07;;;;;;;;;;5094623;28;20044;-77
2024/01/10 02:17:01;;;;;;;18.63;8.23;;;;;;;;;;5094782;28;20127;-75
2024/01/10 02:19:29;;;;;;;22.92;8.80;;;;;;;;;;5096112;28;20468;-77
2024/01/10 02:21:56;;;;;;;21.60;8.70;;;;;;;;;;5096296;28;20048;-76
2024/01/10 02:24:22;;;;;;;20.58;6.70;;;;;;;;;;5095492;28;20044;-78
2024/01/10 02:26:49;;;;;;;14.85;5.30;;;;;;;;;;5096425;28;20392;-77
2024/01/10 02:29:15;;;;;;;20.42;7.93;;;;;;;;;;5078242;28;20051;-76
2024/01/10 02:31:42;;;;;;;16.48;7.80;;;;;;;;;;5078068;28;20139;-76
2024/01/10 02:34:08;;;;;;;13.40;5.40;;;;;;;;;;5094872;28;20056;-77
2024/01/10 02:36:34;;;;;;;14.25;5.70;;;;;;;;;;5094669;28;20048;-75
2024/01/10 02:39:00;;;;;;;19.02;7.47;;;;;;;;;;5095998;28;20044;-77
2024/01/10 02:41:27;;;;;;;16.30;7.22;;;;;;;;;;5094740;28;20051;-76
2024/01/10 02:43:53;;;;;;;14.90;7.18;;;;;;;;;;5094515;28;20047;-78
2024/01/10 02:46:22;;;;;;;17.63;8.35;;;;;;;;;;5096807;28;20388;-76
2024/01/10 02:48:48;;;;;;;16.10;7.03;;;;;;;;;;5095488;28;20510;-75
2024/01/10 02:51:14;;;;;;;23.60;9.20;;;;;;;;;;5094855;28;20058;-78
2024/01/10 02:53:40;;;;;;;19.85;9.10;;;;;;;;;;5094471;28;20051;-75
2024/01/10 02:56:07;;;;;;;17.50;7.53;;;;;;;;;;5094045;28;20040;-77
2024/01/10 02:58:33;;;;;;;15.82;6.80;;;;;;;;;;5095657;28;20044;-77
2024/01/10 03:01:00;;;;;;;14.90;4.18;;;;;;;;;;5095623;28;20047;-75
2024/01/10 03:03:26;;;;;;;13.90;5.85;;;;;;;;;;5095628;28;20056;-77
2024/01/10 03:05:52;;;;;;;17.50;7.78;;;;;;;;;;5095606;28;20040;-77
2024/01/10 03:08:18;;;;;;;11.80;4.63;;;;;;;;;;5095612;28;20360;-76
2024/01/10 03:10:44;;;;;;;18.90;7.72;;;;;;;;;;5095895;28;20131;-73
2024/01/10 03:13:10;;;;;;;12.15;5.03;;;;;;;;;;5098742;28;20048;-79
2024/01/10 03:15:36;;;;;;;12.05;4.95;;;;;;;;;;5106027;28;20044;-77
2024/01/10 03:18:03;;;;;;;17.63;6.20;;;;;;;;;;5100663;28;20473;-77
2024/01/10 03:20:29;;;;;;;19.52;7.32;;;;;;;;;;5078624;28;20492;-77
2024/01/10 03:22:55;;;;;;;20.45;10.10;;;;;;;;;;5096535;28;20386;-79
2024/01/10 03:25:21;;;;;;;10.85;4.05;;;;;;;;;;5094580;28;20078;-77
2024/01/10 03:27:47;;;;;;;20.08;6.70;;;;;;;;;;5095169;28;20040;-73
2024/01/10 03:30:13;;;;;;;19.23;8.02;;;;;;;;;;5094187;28;20048;-77
2024/01/10 03:32:40;;;;;;;20.15;8.15;;;;;;;;;;5095711;28;20062;-77
2024/01/10 03:35:06;;;;;;;16.80;7.07;;;;;;;;;;5094696;28;20112;-75
2024/01/10 03:37:32;;;;;;;15.45;6.45;;;;;;;;;;5094125;28;20104;-76
2024/01/10 03:39:59;;;;;;;21.52;8.90;;;;;;;;;;5094743;28;20200;-78
2024/01/10 03:42:25;;;;;;;11.43;4.90;;;;;;;;;;5095103;28;20052;-77
2024/01/10 03:44:51;;;;;;;13.93;6.18;;;;;;;;;;5093976;28;20047;-75
2024/01/10 03:47:17;;;;;;;18.33;6.90;;;;;;;;;;5095642;28;20391;-77
2024/01/10 03:49:43;;;;;;;16.63;5.78;;;;;;;;;;5093768;28;20044;-76
2024/01/10 03:52:09;;;;;;;16.60;6.13;;;;;;;;;;5093707;28;20056;-76
2024/01/10 03:54:36;;;;;;;17.10;7.95;;;;;;;;;;5094991;28;20089;-77
2024/01/10 03:57:02;;;;;;;21.92;8.10;;;;;;;;;;5094720;28;20127;-78
2024/01/10 03:59:28;;;;;;;18.83;7.40;;;;;;;;;;5094342;28;20040;-78
2024/01/10 04:01:54;;;;;;;19.15;7.78;;;;;;;;;;5094143;28;20044;-75
2024/01/10 04:04:20;;;;;;;17.08;6.60;;;;;;;;;;5077285;28;20426;-77
2024/01/10 04:06:46;;;;;;;14.40;5.15;;;;;;;;;;5093015;28;20048;-77
2024/01/10 04:09:12;;;;;;;17.48;7.10;;;;;;;;;;5092806;28;20131;-76
2024/01/10 04:11:39;;;;;;;23.33;8.90;;;;;;;;;;5094357;28;20071;-77
2024/01/10 04:14:05;;;;;;;17.48;6.15;;;;;;;;;;5094202;28;20063;-74
2024/01/10 04:16:31;;;;;;;16.83;6.43;;;;;;;;;;5092963;28;20126;-79
2024/01/10 04:18:58;;;;;;;13.27;4.97;;;;;;;;;;5092685;28;20407;-78
2024/01/10 04:21:24;;;;;;;26.20;8.50;;;;;;;;;;5094092;28;20058;-77
2024/01/10 04:23:51;;;;;;;16.77;6.32;;;;;;;;;;5092788;28;20130;-78
2024/01/10 04:26:17;;;;;;;10.05;4.22;;;;;;;;;;5092940;28;20095;-76
2024/01/10 04:28:44;;;;;;;18.48;8.00;;;;;;;;;;5094007;28;20048;-79
2024/01/10 04:31:10;;;;;;;12.07;5.00;;;;;;;;;;5092717;28;20048;-77
2024/01/10 04:33:36;;;;;;;17.23;6.40;;;;;;;;;;5092506;28;20063;-77
2024/01/10 04:36:02;;;;;;;19.65;7.38;;;;;;;;;;5092342;28;20365;-79
2024/01/10 04:38:28;;;;;;;17.63;7.03;;;;;;;;;;5092246;28;20042;-78
2024/01/10 04:40:54;;;;;;;15.32;6.10;;;;;;;;;;5092669;28;20063;-78
2024/01/10 04:43:20;;;;;;;16.55;7.15;;;;;;;;;;5093538;28;20113;-80
2024/01/10 04:45:46;;;;;;;14.80;5.28;;;;;;;;;;5076326;28;20055;-76
2024/01/10 04:48:13;;;;;;;18.58;7.38;;;;;;;;;;5093932;28;20054;-79
2024/01/10 04:50:39;;;;;;;20.42;7.97;;;;;;;;;;5075739;28;20040;-77
2024/01/10 04:53:05;;;;;;;20.50;8.18;;;;;;;;;;5092241;28;20130;-80
2024/01/10 04:55:31;;;;;;;20.15;7.30;;;;;;;;;;5093419;28;20055;-79
2024/01/10 04:57:57;;;;;;;18.08;7.65;;;;;;;;;;5093778;28;20044;-78
2024/01/10 05:00:23;;;;;;;16.38;6.35;;;;;;;;;;5092651;28;20052;-78
2024/01/10 05:02:49;;;;;;;16.60;6.63;;;;;;;;;;5093637;28;20051;-81
2024/01/10 05:05:15;;;;;;;18.25;7.72;;;;;;;;;;5092502;28;20048;-80
2024/01/10 05:07:41;;;;;;;16.45;6.75;;;;;;;;;;5093484;28;20066;-79
2024/01/10 05:10:08;;;;;;;19.08;7.45;;;;;;;;;;5093307;28;20461;-80
2024/01/10 05:12:34;;;;;;;15.10;5.35;;;;;;;;;;5094670;28;20048;-78
2024/01/10 05:15:00;;;;;;;15.05;6.35;;;;;;;;;;5094462;28;20093;-80
2024/01/10 05:17:26;;;;;;;19.15;7.00;;;;;;;;;;5094587;28;20060;-78
2024/01/10 05:19:53;;;;;;;12.65;4.65;;;;;;;;;;5097210;28;20062;-79
2024/01/10 05:22:19;;;;;;;13.07;4.57;;;;;;;;;;5095345;28;20055;-79
2024/01/10 05:24:45;;;;;;;15.25;6.75;;;;;;;;;;5096529;28;20040;-79
2024/01/10 05:27:11;;;;;;;9.30;3.35;;;;;;;;;;5094140;28;20063;-81
2024/01/10 05:29:37;;;;;;;11.68;4.18;;;;;;;;;;5100158;28;20066;-80
2024/01/10 05:32:03;;;;;;;20.23;6.82;;;;;;;;;;5106495;28;20044;-80
2024/01/10 05:34:29;;;;;;;19.33;7.55;;;;;;;;;;5111047;28;20040;-78
2024/01/10 05:36:55;;;;;;;22.38;10.35;;;;;;;;;;5101800;28;20052;-79
2024/01/10 05:39:21;;;;;;;21.92;9.48;;;;;;;;;;5097067;28;20074;-80
2024/01/10 05:41:48;;;;;;;21.75;8.98;;;;;;;;;;5094794;28;20048;-78
2024/01/10 05:44:14;;;;;;;22.33;7.47;;;;;;;;;;5079233;28;20051;-80
2024/01/10 05:46:42;;;;;;;21.40;9.38;;;;;;;;;;5095775;28;20067;-79
2024/01/10 05:49:07;;;;;;;;;;;;;;;;;;5099805;28;20043;-77
2024/01/10 05:51:34;;;;;;;17.35;5.80;;;;;;;;;;5108748;28;19971;-78
2024/01/10 05:54:00;;;;;;;21.60;7.97;;;;;;;;;;5108523;28;20083;-77
2024/01/10 05:56:27;;;;;;;19.95;6.95;;;;;;;;;;5100791;28;20047;-79
2024/01/10 05:58:53;;;;;;;24.40;10.00;;;;;;;;;;5105871;28;20055;-80
2024/01/10 06:01:20;;;;;;;21.27;10.60;;;;;;;;;;5103186;28;20052;-79
2024/01/10 06:03:46;;;;;;;19.42;7.75;;;;;;;;;;5100555;28;20050;-78
2024/01/10 06:06:12;;;;;;;20.70;8.38;;;;;;;;;;5067365;28;20488;-77
2024/01/10 06:08:38;;;;;;;20.90;9.05;;;;;;;;;;5105712;28;20041;-82
2024/01/10 06:11:08;;;;;;;22.52;9.00;;;;;;;;;;5107427;28;20138;-79
2024/01/10 06:13:34;;;;;;;18.10;7.75;;;;;;;;;;5102871;28;20052;-79
2024/01/10 06:16:02;;;;;;;26.90;12.88;;;;;;;;;;5098685;28;20067;-80
2024/01/10 06:18:28;;;;;;;21.67;9.13;;;;;;;;;;5105618;28;20074;-79
2024/01/10 06:20:54;;;;;;;24.75;11.63;;;;;;;;;;5100342;28;20109;-80
2024/01/10 06:23:20;;;;;;;27.50;10.82;;;;;;;;;;5101110;28;20040;-80
2024/01/10 06:25:47;;;;;;;22.98;7.75;;;;;;;;;;5097968;28;20036;-82
2024/01/10 06:28:13;;;;;;;25.98;8.80;;;;;;;;;;5099572;28;20048;-79
2024/01/10 06:30:39;;;;;;;19.67;8.30;;;;;;;;;;5101116;28;20047;-81
2024/01/10 06:33:06;;;;;;;23.05;9.07;;;;;;;;;;5096846;28;20059;-80
2024/01/10 06:35:34;;;;;;;20.88;9.00;;;;;;;;;;5096101;28;20434;-80
2024/01/10 06:38:03;;;;;;;25.40;10.30;;;;;;;;;;5097779;28;20092;-79
2024/01/10 06:40:30;;;;;;;29.05;11.15;;;;;;;;;;5097148;28;20488;-80
2024/01/10 06:42:56;;;;;;;15.60;6.20;;;;;;;;;;5099762;28;20189;-80
2024/01/10 06:45:22;;;;;;;22.48;8.30;;;;;;;;;;5099838;28;20073;-78
2024/01/10 06:47:48;;;;;;;21.10;7.55;;;;;;;;;;5078897;28;20052;-78
2024/01/10 06:50:15;;;;;;;14.73;5.05;;;;;;;;;;5094791;28;20052;-77
2024/01/10 06:52:41;;;;;;;28.17;9.98;;;;;;;;;;5077738;28;20084;-78
2024/01/10 06:55:08;;;;;;;16.02;7.20;;;;;;;;;;5095309;28;20040;-78
2024/01/10 06:57:34;;;;;;;23.40;9.53;;;;;;;;;;5095424;28;20131;-80
2024/01/10 07:00:03;;;;;;;18.05;5.95;;;;;;;;;;5097240;28;20052;-77
2024/01/10 07:02:29;;;;;;;22.75;8.35;;;;;;;;;;5096747;28;20421;-78
2024/01/10 07:04:55;;;;;;;18.67;7.97;;;;;;;;;;5097056;28;20050;-80
2024/01/10 07:07:21;;;;;;;26.92;10.65;;;;;;;;;;5095674;28;20483;-77
2024/01/10 07:09:47;;;;;;;20.13;8.77;;;;;;;;;;5078950;28;20060;-78
2024/01/10 07:12:13;;;;;;;23.80;7.82;;;;;;;;;;5100502;28;20068;-77
2024/01/10 07:14:40;;;;;;;24.17;9.68;;;;;;;;;;5101348;28;20044;-77
2024/01/10 07:17:06;;;;;;;19.75;9.27;;;;;;;;;;5099811;28;20131;-79
2024/01/10 07:19:32;;;;;;;29.33;13.77;;;;;;;;;;5096046;28;20087;-79
2024/01/10 07:21:58;;;;;;;26.10;10.18;;;;;;;;;;5099127;28;20072;-78
2024/01/10 07:24:24;;;;;;;24.40;8.40;;;;;;;;;;5096301;28;20134;-76
2024/01/10 07:26:51;;;;;;;28.15;12.13;;;;;;;;;;5095493;28;20428;-78
2024/01/10 07:29:17;;;;;;;30.05;13.25;;;;;;;;;;5096470;28;20051;-84
2024/01/10 07:31:43;;;;;;;20.65;8.70;;;;;;;;;;5096207;28;20452;-78
2024/01/10 07:34:09;;;;;;;27.38;10.52;;;;;;;;;;5095244;28;20094;-79
2024/01/10 07:36:42;;;;;;;19.73;7.85;;;;;;;;;;5078596;28;20039;-80
2024/01/10 07:39:08;;;;;;;23.27;9.25;;;;;;;;;;5095306;28;20095;-79
2024/01/10 07:41:34;;;;;;;24.38;9.73;;;;;;;;;;5095769;28;20079;-77
2024/01/10 07:44:00;;;;;;;25.67;9.00;;;;;;;;;;5078427;28;20070;-78
2024/01/10 07:46:29;;;;;;;19.30;9.10;;;;;;;;;;5095277;28;20036;-81
2024/01/10 07:48:55;;;;;;;24.40;9.38;;;;;;;;;;5094752;28;20052;-79
2024/01/10 07:51:21;;;;;;;31.58;12.80;;;;;;;;;;5077282;28;20060;-78
2024/01/10 07:53:48;;;;;;;23.67;9.73;;;;;;;;;;5096270;28;20044;-79
2024/01/10 07:56:14;;;;;;;23.87;8.97;;;;;;;;;;5099599;28;20384;-77
2024/01/10 07:58:40;;;;;;;18.27;7.15;;;;;;;;;;5083821;28;20052;-77
2024/01/10 08:01:07;;;;;;;21.65;8.98;;;;;;;;;;5081266;28;20073;-77
2024/01/10 08:03:33;;;;;;;22.55;9.15;;;;;;;;;;5094849;28;20048;-76
2024/01/10 08:05:59;;;;;;;10.38;4.90;;;;;;;;;;5076240;28;20086;-78
2024/01/10 08:08:25;;;;;;;14.25;6.55;;;;;;;;;;5092912;28;20051;-80
2024/01/10 08:10:51;;;;;;;24.05;9.57;;;;;;;;;;5093486;28;20048;-77
2024/01/10 08:13:18;;;;;;;17.45;6.32;;;;;;;;;;5092747;28;20109;-78
2024/01/10 08:15:44;;;;;;;17.63;6.63;;;;;;;;;;5094245;28;20039;-80
2024/01/10 08:18:10;;;;;;;16.73;5.22;;;;;;;;;;5092526;28;20052;-77
2024/01/10 08:20:36;;;;;;;19.60;7.28;;;;;;;;;;5092543;28;20148;-78
2024/01/10 08:23:02;;;;;;;16.70;6.80;;;;;;;;;;5075861;28;20052;-75
2024/01/10 08:25:29;;;;;;;9.48;4.93;;;;;;;;;;5092737;28;20051;-76
2024/01/10 08:27:57;;;;;;;23.58;10.32;;;;;;;;;;5093324;28;20517;-75
2024/01/10 08:30:23;;;;;;;24.88;8.85;;;;;;;;;;5094110;28;20048;-76
2024/01/10 08:32:49;;;;;;;14.98;6.53;;;;;;;;;;5092440;28;20051;-76
2024/01/10 08:35:16;;;;;;;21.48;9.05;;;;;;;;;;5092267;28;20123;-75
2024/01/10 08:37:42;;;;;;;23.13;9.37;;;;;;;;;;5094037;28;20048;-75
2024/01/10 08:40:14;;;;;;;31.17;10.77;;;;;;;;;;5092434;28;20135;-76
2024/01/10 08:42:40;;;;;;;14.35;5.43;;;;;;;;;;5094069;28;20282;-76
2024/01/10 08:45:09;;;;;;;23.70;9.10;;;;;;;;;;5092375;28;20052;-74
2024/01/10 08:47:35;;;;;;;21.63;8.90;;;;;;;;;;5092256;28;20044;-75
2024/01/10 08:50:08;;;;;;;22.65;10.20;;;;;;;;;;5075480;28;20055;-75
2024/01/10 08:52:35;;;;;;;24.67;10.50;;;;;;;;;;5075437;28;20384;-75
2024/01/10 08:55:01;;;;;;;17.73;6.90;;;;;;;;;;5092847;28;20130;-77
2024/01/10 08:57:27;;;;;;;22.77;8.75;;;;;;;;;;5092362;28;20055;-75
2024/01/10 08:59:54;;;;;;;23.75;8.73;;;;;;;;;;5075084;28;20530;-75
2024/01/10 09:02:20;;;;;;;26.57;10.03;;;;;;;;;;5075474;28;20051;-74
2024/01/10 09:04:46;;;;;;;13.77;6.07;;;;;;;;;;5093203;28;20048;-75
2024/01/10 09:07:12;;;;;;;20.23;7.82;;;;;;;;;;5075317;28;20083;-76
2024/01/10 09:09:39;;;;;;;21.80;8.43;;;;;;;;;;5075268;28;20048;-74
2024/01/10 09:12:05;;;;;;;17.88;7.03;;;;;;;;;;5092188;28;20047;-74
2024/01/10 09:14:31;;;;;;;22.63;9.27;;;;;;;;;;5093834;28;20363;-74
2024/01/10 09:17:01;;;;;;;23.02;10.07;;;;;;;;;;5076153;28;20044;-75
2024/01/10 09:19:28;;;;;;;21.98;9.63;;;;;;;;;;5093388;28;20096;-77
2024/01/10 09:21:55;;;;;;;20.33;7.95;;;;;;;;;;5091737;28;20485;-75
2024/01/10 09:24:21;;;;;;;19.25;8.43;;;;;;;;;;5076515;28;20079;-75
2024/01/10 09:26:48;;;;;;;17.23;6.70;;;;;;;;;;5095583;28;20044;-74
2024/01/10 09:29:14;;;;;;;19.20;7.10;;;;;;;;;;5096829;28;20050;-73
2024/01/10 09:31:40;;;;;;;11.40;5.05;;;;;;;;;;5096683;28;20437;-74
2024/01/10 09:34:06;;;;;;;15.52;5.65;;;;;;;;;;5097324;28;20051;-75
2024/01/10 09:36:32;;;;;;;19.42;8.15;;;;;;;;;;5096291;28;20047;-74
2024/01/10 09:38:58;;;;;;;13.90;5.60;;;;;;;;;;5078851;28;20076;-75
2024/01/10 09:41:26;;;;;;;11.00;3.72;;;;;;;;;;5095669;28;20389;-74
2024/01/10 09:43:52;;;;;;;16.13;6.28;;;;;;;;;;5096569;28;20492;-75
2024/01/10 09:46:19;;;;;;;14.30;6.55;;;;;;;;;;5096760;28;20048;-74
2024/01/10 09:48:45;;;;;;;14.35;5.60;;;;;;;;;;5078104;28;20447;-73
2024/01/10 09:51:13;;;;;;;11.13;5.03;;;;;;;;;;5078671;28;20147;-73
2024/01/10 09:53:41;;;;;;;16.08;6.15;;;;;;;;;;5096499;28;20048;-75
2024/01/10 09:56:08;;;;;;;16.83;7.43;;;;;;;;;;5095569;28;20354;-75
2024/01/10 09:58:38;;;;;;;13.05;5.75;;;;;;;;;;5095591;28;20044;-74
2024/01/10 10:01:05;;;;;;;10.32;4.35;;;;;;;;;;5096151;28;20445;-75
2024/01/10 10:03:33;;;;;;;18.65;8.07;;;;;;;;;;5095212;28;20056;-74
2024/01/10 10:06:00;;;;;;;17.85;6.30;;;;;;;;;;5078127;28;20499;-75
2024/01/10 10:08:26;;;;;;;12.88;5.70;;;;;;;;;;5095030;28;20090;-74
2024/01/10 10:10:52;;;;;;;10.45;4.60;;;;;;;;;;5095544;28;20088;-74
2024/01/10 10:13:25;;;;;;;15.35;5.78;;;;;;;;;;5096572;28;20051;-75
2024/01/10 10:16:01;;;;;;;15.10;6.55;;;;;;;;;;5096237;28;20040;-75
2024/01/10 10:18:28;;;;;;;16.65;7.05;;;;;;;;;;5078455;28;20074;-75
2024/01/10 10:21:11;;;;;;;19.92;7.15;;;;;;;;;;5094975;28;20051;-74
2024/01/10 10:23:38;;;;;;;14.60;7.32;;;;;;;;;;5078468;28;20472;-77
2024/01/10 10:26:19;;;;;;;15.90;5.65;;;;;;;;;;5097666;28;20051;-75
2024/01/10 10:28:45;;;;;;;18.30;7.65;;;;;;;;;;5101189;28;20052;-77
2024/01/10 10:31:11;;;;;;;11.57;4.75;;;;;;;;;;5100132;28;20051;-75
2024/01/10 10:33:38;;;;;;;13.90;6.57;;;;;;;;;;5098894;28;20130;-75
2024/01/10 10:36:04;;;;;;;13.50;6.53;;;;;;;;;;5095226;28;20395;-74
2024/01/10 10:38:30;;;;;;;19.00;7.03;;;;;;;;;;5095288;28;20261;-76
2024/01/10 10:40:58;;;;;;;17.33;6.82;;;;;;;;;;5095743;28;20044;-77
2024/01/10 10:43:24;;;;;;;;;;;;;;;;;;5094873;28;20480;-73
2024/01/10 10:45:51;;;;;;;16.33;6.13;;;;;;;;;;5095376;28;19931;-74
2024/01/10 10:48:19;;;;;;;12.05;4.43;;;;;;;;;;5095424;28;20086;-74
2024/01/10 10:50:51;;;;;;;12.48;5.05;;;;;;;;;;5094395;28;20058;-74
2024/01/10 10:53:18;;;;;;;17.38;7.53;;;;;;;;;;5095930;28;20044;-74
2024/01/10 10:55:45;;;;;;;20.58;7.10;;;;;;;;;;5095903;28;20098;-76
2024/01/10 10:58:11;;;;;;;16.98;7.82;;;;;;;;;;5095357;28;20101;-76
2024/01/10 11:00:37;;;;;;;17.30;8.25;;;;;;;;;;5094026;28;20090;-74
2024/01/10 11:03:04;;;;;;;12.37;4.87;;;;;;;;;;5077553;28;20077;-75
2024/01/10 11:05:31;;;;;;;7.82;2.92;;;;;;;;;;5077799;28;20294;-75
2024/01/10 11:07:58;;;;;;;15.18;6.13;;;;;;;;;;5094058;28;20094;-74
2024/01/10 11:10:28;;;;;;;15.20;6.28;;;;;;;;;;5094857;28;20044;-75
2024/01/10 11:13:14;;;;;;;15.48;6.13;;;;;;;;;;5094429;28;20075;-75
2024/01/10 11:15:58;;;;;;;14.77;5.65;;;;;;;;;;5093951;28;20131;-75
2024/01/10 11:18:34;;;;;;;8.63;3.15;;;;;;;;;;5077865;28;20380;-74
2024/01/10 11:21:03;;;;;;;14.82;6.07;;;;;;;;;;5095514;28;20410;-74
2024/01/10 11:23:39;;;;;;;10.95;3.80;;;;;;;;;;5095061;28;20484;-75
2024/01/10 11:26:05;;;;;;;12.70;5.45;;;;;;;;;;5094970;28;20480;-75
2024/01/10 11:28:32;;;;;;;14.02;5.82;;;;;;;;;;5095147;28;20048;-75
2024/01/10 11:30:59;;;;;;;14.87;5.33;;;;;;;;;;5095304;28;20108;-73
2024/01/10 11:33:26;;;;;;;18.65;6.78;;;;;;;;;;5095244;28;20051;-76
2024/01/10 11:36:10;;;;;;;12.93;4.65;;;;;;;;;;5094844;28;20055;-74
2024/01/10 11:39:03;;;;;;;13.98;5.65;;;;;;;;;;5093020;28;20510;-75
2024/01/10 11:41:31;;;;;;;11.25;3.47;;;;;;;;;;5089787;28;20050;-73
2024/01/10 11:44:09;;;;;;;14.32;5.60;;;;;;;;;;5094409;28;20100;-74
2024/01/10 11:46:35;;;;;;;12.60;4.43;;;;;;;;;;5092915;28;20488;-74
2024/01/10 11:49:02;;;;;;;14.23;4.88;;;;;;;;;;5093558;28;20056;-74
2024/01/10 11:51:29;;;;;;;12.30;4.83;;;;;;;;;;5094488;28;20357;-75
2024/01/10 11:53:56;;;;;;;10.65;3.30;;;;;;;;;;5092752;28;20036;-74
2024/01/10 11:56:23;;;;;;;13.35;4.93;;;;;;;;;;5076520;28;20071;-75
2024/01/10 11:59:04;;;;;;;13.18;4.13;;;;;;;;;;5093237;28;20129;-73
2024/01/10 12:01:33;;;;;;;11.35;3.50;;;;;;;;;;5092497;28;20059;-73
2024/01/10 12:04:00;;;;;;;15.88;7.20;;;;;;;;;;5093738;28;20468;-75
2024/01/10 12:06:26;;;;;;;12.25;4.43;;;;;;;;;;5093407;28;20047;-73
2024/01/10 12:08:52;;;;;;;9.38;3.38;;;;;;;;;;5092430;28;20051;-74
2024/01/10 12:11:18;;;;;;;11.43;4.00;;;;;;;;;;5093032;28;20040;-75
2024/01/10 12:13:44;;;;;;;12.40;4.25;;;;;;;;;;5076032;28;20044;-75
2024/01/10 12:16:13;;;;;;;14.43;4.47;;;;;;;;;;5094143;28;20047;-74
2024/01/10 12:18:42;;;;;;;15.80;5.32;;;;;;;;;;5094327;28;20464;-74
2024/01/10 12:21:09;;;;;;;12.68;3.92;;;;;;;;;;5092461;28;20483;-74
2024/01/10 12:23:38;;;;;;;15.07;5.43;;;;;;;;;;5093969;28;20044;-75
2024/01/10 12:26:07;;;;;;;12.70;4.82;;;;;;;;;;5094301;28;20044;-73
2024/01/10 12:28:36;;;;;;;14.77;5.10;;;;;;;;;;5093987;28;20059;-75
2024/01/10 12:31:04;;;;;;;15.10;5.25;;;;;;;;;;5094176;28;20047;-75
2024/01/10 12:33:32;;;;;;;10.45;3.75;;;;;;;;;;5093933;28;20047;-73
2024/01/10 12:36:09;;;;;;;18.33;5.85;;;;;;;;;;5093596;28;20040;-74
2024/01/10 12:38:35;;;;;;;13.00;5.07;;;;;;;;;;5076434;28;20082;-75
2024/01/10 12:41:02;;;;;;;15.25;4.90;;;;;;;;;;5093632;28;20136;-75
2024/01/10 12:43:28;;;;;;;12.00;4.50;;;;;;;;;;5092240;28;20044;-74
2024/01/10 12:46:13;;;;;;;14.50;5.22;;;;;;;;;;5075980;28;20395;-74
2024/01/10 12:48:41;;;;;;;8.73;2.97;;;;;;;;;;5075730;28;20059;-74
2024/01/10 12:51:10;;;;;;;17.40;5.35;;;;;;;;;;5093737;28;20418;-74
2024/01/10 12:53:37;;;;;;;14.43;5.28;;;;;;;;;;5093512;28;20051;-77
2024/01/10 12:56:04;;;;;;;13.75;4.80;;;;;;;;;;5097116;28;20044;-76
2024/01/10 12:58:30;;;;;;;9.35;3.88;;;;;;;;;;5100661;28;20044;-74
2024/01/10 13:00:56;;;;;;;15.18;5.13;;;;;;;;;;5102237;28;20052;-73
2024/01/10 13:03:23;;;;;;;10.25;3.13;;;;;;;;;;5099419;28;20044;-75
2024/01/10 13:05:49;;;;;;;12.52;3.75;;;;;;;;;;5097649;28;20040;-74
2024/01/10 13:08:15;;;;;;;6.15;2.60;;;;;;;;;;5079660;28;20051;-72
2024/01/10 13:10:42;;;;;;;14.80;5.35;;;;;;;;;;5096742;28;20452;-75
2024/01/10 13:13:08;;;;;;;9.73;3.20;;;;;;;;;;5079407;28;20091;-74
2024/01/10 13:15:34;;;;;;;10.75;3.58;;;;;;;;;;5098167;28;20123;-75
2024/01/10 13:18:00;;;;;;;14.10;4.40;;;;;;;;;;5096202;28;20081;-76
2024/01/10 13:20:27;;;;;;;15.30;4.97;;;;;;;;;;5096716;28;20055;-76
2024/01/10 13:22:54;;;;;;;11.73;4.25;;;;;;;;;;5096481;28;20108;-75
2024/01/10 13:25:23;;;;;;;13.52;4.07;;;;;;;;;;5097771;28;20189;-75
2024/01/10 13:27:52;;;;;;;20.35;5.43;;;;;;;;;;5097383;28;20065;-76
2024/01/10 13:30:19;;;;;;;11.48;3.33;;;;;;;;;;5097567;28;20429;-74
2024/01/10 13:32:48;;;;;;;12.82;5.18;;;;;;;;;;5095831;28;20063;-76
2024/01/10 13:35:16;;;;;;;15.60;5.15;;;;;;;;;;5096006;28;20127;-74
2024/01/10 13:37:42;;;;;;;;;;;;;;;;;;5096321;28;20114;-73
2024/01/10 13:40:09;;;;;;;14.30;4.90;;;;;;;;;;5130076;27;19992;-75
2024/01/10 13:42:35;;;;;;;;;;;;;;;;;;5098160;28;20048;-77
2024/01/10 13:45:01;;;;;;;10.45;3.05;;;;;;;;;;5096505;28;20356;-73
2024/01/10 13:47:27;;;;;;;16.17;4.15;;;;;;;;;;5096978;28;20044;-74
2024/01/10 13:49:53;;;;;;;8.68;3.10;;;;;;;;;;5096771;28;20396;-74
2024/01/10 13:52:19;;;;;;;16.05;5.30;;;;;;;;;;5096599;28;20044;-75
2024/01/10 13:54:46;;;;;;;15.60;4.97;;;;;;;;;;5097316;28;20052;-73
2024/01/10 13:57:12;;;;;;;14.45;5.22;;;;;;;;;;5095560;28;20048;-75
2024/01/10 13:59:38;;;;;;;8.73;2.72;;;;;;;;;;5078624;28;20052;-75
2024/01/10 14:02:04;;;;;;;16.25;5.68;;;;;;;;;;5095991;28;20491;-75
2024/01/10 14:04:30;;;;;;;18.02;6.00;;;;;;;;;;5096678;28;20051;-74
2024/01/10 14:06:56;;;;;;;20.52;5.32;;;;;;;;;;5096310;28;20491;-75
2024/01/10 14:09:23;;;;;;;16.25;5.20;;;;;;;;;;5096958;28;20564;-75
2024/01/10 14:11:49;;;;;;;18.98;5.82;;;;;;;;;;5094376;28;20052;-74
2024/01/10 14:14:16;;;;;;;17.58;5.32;;;;;;;;;;5096554;28;20044;-76
2024/01/10 14:16:42;;;;;;;11.75;3.00;;;;;;;;;;5095641;28;20388;-74
2024/01/10 14:19:08;;;;;;;16.67;5.82;;;;;;;;;;5095239;28;20052;-72
2024/01/10 14:21:34;;;;;;;15.30;5.38;;;;;;;;;;5095692;28;20048;-75
2024/01/10 14:24:01;;;;;;;17.27;5.55;;;;;;;;;;5078922;28;20052;-76
2024/01/10 14:26:27;;;;;;;14.25;5.78;;;;;;;;;;5095451;28;20064;-76
2024/01/10 14:28:55;;;;;;;15.90;5.72;;;;;;;;;;5096283;28;20036;-75